createdAt,value
2022-12-18T00:01:36.140Z,14.35
2022-12-18T00:04:06.172Z,13.18
2022-12-18T00:06:34.708Z,9.73
2022-12-18T00:09:03.833Z,13.27
2022-12-18T00:11:32.005Z,11.45
2022-12-18T00:14:01.000Z,12.48
2022-12-18T00:16:31.130Z,10.85
2022-12-18T00:18:59.302Z,11.10
2022-12-18T00:21:26.658Z,9.10
2022-12-18T00:23:53.771Z,10.27
2022-12-18T00:26:25.934Z,11.00
2022-12-18T00:29:00.924Z,8.40
2022-12-18T00:31:28.455Z,10.55
2022-12-18T00:33:57.139Z,10.05
2022-12-18T00:36:30.821Z,8.45
2022-12-18T00:38:59.581Z,9.43
2022-12-18T00:41:46.785Z,12.27
2022-12-18T00:44:16.743Z,9.10
2022-12-18T00:46:45.101Z,11.48
2022-12-18T00:49:14.447Z,9.75
2022-12-18T00:51:41.734Z,7.03
2022-12-18T00:54:09.048Z,12.45
2022-12-18T00:56:48.377Z,9.52
2022-12-18T00:59:17.790Z,10.40
2022-12-18T01:01:45.839Z,9.00
2022-12-18T01:04:13.428Z,8.95
2022-12-18T01:06:40.912Z,9.38
2022-12-18T01:09:07.877Z,7.13
2022-12-18T01:11:37.401Z,9.65
2022-12-18T01:14:05.283Z,12.90
2022-12-18T01:16:32.414Z,13.75
2022-12-18T01:19:00.838Z,14.23
2022-12-18T01:21:28.435Z,12.07
2022-12-18T01:23:57.222Z,13.55
2022-12-18T01:26:26.269Z,12.85
2022-12-18T01:28:54.911Z,10.48
2022-12-18T01:31:29.687Z,10.55
2022-12-18T01:33:57.324Z,13.32
2022-12-18T01:36:42.471Z,10.82
2022-12-18T01:39:13.048Z,15.52
2022-12-18T01:42:01.951Z,17.60
2022-12-18T01:45:06.763Z,23.52
2022-12-18T01:47:36.833Z,19.05
2022-12-18T01:50:24.641Z,19.48
2022-12-18T01:52:55.349Z,16.17
2022-12-18T01:55:26.800Z,14.07
2022-12-18T01:57:57.528Z,18.17
2022-12-18T02:00:25.760Z,12.82
2022-12-18T02:02:53.231Z,11.48
2022-12-18T02:05:49.223Z,8.47
2022-12-18T02:08:27.214Z,9.32
2022-12-18T02:11:25.814Z,8.70
2022-12-18T02:14:09.518Z,8.70
2022-12-18T02:16:51.438Z,8.45
2022-12-18T02:19:30.214Z,9.10
2022-12-18T02:22:21.820Z,8.82
2022-12-18T02:25:08.553Z,9.63
2022-12-18T02:27:37.988Z,10.60
2022-12-18T02:30:06.915Z,8.50
2022-12-18T02:32:40.994Z,11.38
2022-12-18T02:35:14.046Z,10.20
2022-12-18T02:37:44.402Z,13.32
2022-12-18T02:40:13.639Z,13.23
2022-12-18T02:42:40.786Z,12.07
2022-12-18T02:45:10.551Z,11.07
2022-12-18T02:47:41.683Z,9.35
2022-12-18T02:50:36.800Z,9.73
2022-12-18T02:53:16.486Z,9.88
2022-12-18T02:55:56.210Z,10.80
2022-12-18T02:58:41.389Z,10.93
2022-12-18T03:01:28.083Z,12.10
2022-12-18T03:03:55.868Z,10.45
2022-12-18T03:06:33.134Z,10.43
2022-12-18T03:09:05.572Z,13.00
2022-12-18T03:11:56.196Z,11.65
2022-12-18T03:14:26.688Z,12.70
2022-12-18T03:16:58.791Z,12.15
2022-12-18T03:19:28.611Z,14.07
2022-12-18T03:22:01.961Z,10.68
2022-12-18T03:24:35.911Z,13.55
2022-12-18T03:27:06.197Z,10.55
2022-12-18T03:29:41.956Z,13.60
2022-12-18T03:32:25.927Z,16.45
2022-12-18T03:34:57.693Z,16.85
2022-12-18T03:37:25.743Z,15.23
2022-12-18T03:39:53.552Z,12.10
2022-12-18T03:42:45.158Z,16.05
2022-12-18T03:45:24.482Z,13.48
2022-12-18T03:48:29.103Z,16.08
2022-12-18T03:51:08.999Z,17.35
2022-12-18T03:53:53.077Z,14.82
2022-12-18T03:56:27.698Z,17.10
2022-12-18T03:58:57.459Z,13.43
2022-12-18T04:01:39.694Z,13.00
2022-12-18T04:04:09.349Z,17.38
2022-12-18T04:06:40.152Z,15.75
2022-12-18T04:09:08.571Z,19.73
2022-12-18T04:11:40.723Z,16.48
2022-12-18T04:14:08.552Z,17.08
2022-12-18T04:16:37.213Z,17.25
2022-12-18T04:19:06.253Z,20.27
2022-12-18T04:21:39.303Z,16.33
2022-12-18T04:24:07.122Z,16.38
2022-12-18T04:26:36.683Z,15.00
2022-12-18T04:29:16.858Z,13.52
2022-12-18T04:31:44.326Z,12.60
2022-12-18T04:34:11.579Z,17.90
2022-12-18T04:36:44.399Z,18.67
2022-12-18T04:39:11.661Z,18.35
2022-12-18T04:41:38.865Z,18.85
2022-12-18T04:44:09.230Z,16.90
2022-12-18T04:46:36.299Z,16.90
2022-12-18T04:49:03.328Z,19.00
2022-12-18T04:51:30.284Z,17.95
2022-12-18T04:53:57.325Z,22.17
2022-12-18T04:56:24.371Z,23.85
2022-12-18T04:58:51.367Z,26.00
2022-12-18T05:01:23.555Z,26.20
2022-12-18T05:03:52.169Z,29.15
2022-12-18T05:08:46.829Z,27.13
2022-12-18T05:11:18.969Z,31.07
2022-12-18T05:13:46.587Z,27.33
2022-12-18T05:16:16.111Z,28.67
2022-12-18T05:18:43.157Z,27.48
2022-12-18T05:21:10.202Z,30.98
2022-12-18T05:23:37.637Z,30.35
2022-12-18T05:26:07.071Z,33.33
2022-12-18T05:28:35.672Z,29.98
2022-12-18T05:33:33.530Z,32.38
2022-12-18T05:36:03.687Z,33.75
2022-12-18T05:38:32.546Z,31.15
2022-12-18T05:40:59.938Z,36.50
2022-12-18T05:43:28.629Z,37.13
2022-12-18T05:48:23.129Z,44.90
2022-12-18T05:50:51.295Z,41.50
2022-12-18T05:53:20.618Z,43.67
2022-12-18T05:55:48.305Z,46.97
2022-12-18T05:58:16.520Z,48.53
2022-12-18T06:00:46.039Z,50.22
2022-12-18T06:03:20.456Z,47.90
2022-12-18T06:05:48.038Z,47.45
2022-12-18T06:08:15.021Z,47.75
2022-12-18T06:10:42.340Z,50.45
2022-12-18T06:13:09.383Z,58.40
2022-12-18T06:15:39.401Z,57.60
2022-12-18T06:18:06.589Z,58.03
2022-12-18T06:20:34.185Z,61.25
2022-12-18T06:23:01.729Z,56.53
2022-12-18T06:25:29.002Z,53.25
2022-12-18T06:27:56.101Z,50.05
2022-12-18T06:30:23.577Z,64.65
2022-12-18T06:32:56.428Z,63.63
2022-12-18T06:35:24.469Z,62.67
2022-12-18T06:37:51.843Z,64.78
2022-12-18T06:40:19.502Z,60.63
2022-12-18T06:42:46.834Z,66.80
2022-12-18T06:45:13.935Z,66.18
2022-12-18T06:47:41.371Z,60.08
2022-12-18T06:50:08.842Z,58.13
2022-12-18T06:52:35.884Z,58.00
2022-12-18T06:55:03.365Z,55.20
2022-12-18T06:57:30.348Z,59.80
2022-12-18T06:59:57.306Z,73.60
2022-12-18T07:02:24.351Z,63.65
2022-12-18T07:04:51.404Z,56.58
2022-12-18T07:07:18.394Z,64.40
2022-12-18T07:09:45.343Z,54.00
2022-12-18T07:12:12.331Z,61.53
2022-12-18T07:14:39.282Z,62.00
2022-12-18T07:17:06.563Z,56.80
2022-12-18T07:19:34.610Z,57.65
2022-12-18T07:22:01.860Z,58.93
2022-12-18T07:24:29.442Z,55.10
2022-12-18T07:26:56.435Z,59.38
2022-12-18T07:29:23.455Z,58.50
2022-12-18T07:31:50.444Z,58.17
2022-12-18T07:34:18.264Z,82.95
2022-12-18T07:36:45.230Z,72.30
2022-12-18T07:39:12.812Z,78.57
2022-12-18T07:41:46.730Z,71.03
2022-12-18T07:44:16.453Z,65.72
2022-12-18T07:46:43.428Z,66.57
2022-12-18T07:49:10.547Z,65.80
2022-12-18T07:51:37.831Z,65.05
2022-12-18T07:54:05.649Z,62.35
2022-12-18T07:56:32.677Z,75.32
2022-12-18T07:59:00.548Z,76.80
2022-12-18T08:01:28.186Z,75.32
2022-12-18T08:03:55.519Z,76.00
2022-12-18T08:06:24.124Z,68.68
2022-12-18T08:08:56.805Z,75.47
2022-12-18T08:11:25.232Z,70.60
2022-12-18T08:13:52.684Z,67.05
2022-12-18T08:16:20.731Z,70.53
2022-12-18T08:18:47.875Z,71.70
2022-12-18T08:21:24.102Z,80.45
2022-12-18T08:23:52.859Z,79.30
2022-12-18T08:26:21.004Z,81.50
2022-12-18T08:28:48.459Z,65.95
2022-12-18T08:31:16.370Z,69.15
2022-12-18T08:33:43.949Z,69.40
2022-12-18T08:36:11.512Z,73.70
2022-12-18T08:38:38.599Z,75.47
2022-12-18T08:41:11.817Z,68.25
2022-12-18T08:43:57.695Z,75.60
2022-12-18T08:46:26.866Z,69.50
2022-12-18T08:48:55.988Z,77.65
2022-12-18T08:51:23.089Z,67.45
2022-12-18T08:53:50.070Z,66.75
2022-12-18T08:56:17.239Z,68.93
2022-12-18T08:58:44.367Z,63.40
2022-12-18T09:01:13.396Z,64.13
2022-12-18T09:03:41.574Z,62.58
2022-12-18T09:06:09.354Z,66.32
2022-12-18T09:08:37.915Z,59.80
2022-12-18T09:11:05.571Z,70.03
2022-12-18T09:13:32.614Z,71.05
2022-12-18T09:15:59.662Z,78.28
2022-12-18T09:18:26.628Z,72.85
2022-12-18T09:20:53.986Z,75.93
2022-12-18T09:23:21.988Z,58.60
2022-12-18T09:25:49.307Z,71.68
2022-12-18T09:28:19.193Z,68.85
2022-12-18T09:30:50.733Z,66.75
2022-12-18T09:33:18.606Z,59.53
2022-12-18T09:35:47.398Z,75.32
2022-12-18T09:38:17.117Z,66.00
2022-12-18T09:40:51.319Z,58.60
2022-12-18T09:43:34.904Z,63.75
2022-12-18T09:46:06.244Z,70.65
2022-12-18T09:48:38.368Z,67.55
2022-12-18T09:51:18.585Z,56.47
2022-12-18T09:53:54.541Z,60.75
2022-12-18T09:56:24.039Z,85.10
2022-12-18T09:58:59.533Z,61.42
2022-12-18T10:01:37.682Z,62.45
2022-12-18T10:04:09.883Z,71.60
2022-12-18T10:06:46.352Z,59.03
2022-12-18T10:09:35.002Z,63.65
2022-12-18T10:12:10.677Z,60.65
2022-12-18T10:15:08.016Z,54.05
2022-12-18T10:17:44.193Z,55.17
2022-12-18T10:20:14.487Z,50.17
2022-12-18T10:23:00.215Z,57.53
2022-12-18T10:25:27.448Z,66.07
2022-12-18T10:28:08.347Z,59.30
2022-12-18T10:30:35.348Z,58.97
2022-12-18T10:33:03.753Z,59.13
2022-12-18T10:35:30.835Z,69.10
2022-12-18T10:38:08.644Z,58.45
2022-12-18T10:40:49.559Z,59.75
2022-12-18T10:43:21.301Z,56.88
2022-12-18T10:46:10.291Z,53.40
2022-12-18T10:48:48.311Z,53.25
2022-12-18T10:51:35.257Z,43.75
2022-12-18T10:54:07.521Z,46.65
2022-12-18T10:56:39.002Z,47.92
2022-12-18T10:59:08.868Z,59.30
2022-12-18T11:01:57.344Z,61.38
2022-12-18T11:04:30.441Z,55.63
2022-12-18T11:07:04.861Z,54.75
2022-12-18T11:09:34.427Z,57.35
2022-12-18T11:12:15.723Z,55.20
2022-12-18T11:14:46.849Z,41.95
2022-12-18T11:17:32.336Z,48.70
2022-12-18T11:20:01.751Z,45.72
2022-12-18T11:22:31.611Z,54.17
2022-12-18T11:25:34.425Z,55.33
2022-12-18T11:28:05.512Z,52.22
2022-12-18T11:30:37.530Z,49.30
2022-12-18T11:33:11.019Z,51.45
2022-12-18T11:35:54.656Z,50.30
2022-12-18T11:38:27.770Z,53.13
2022-12-18T11:41:11.339Z,47.88
2022-12-18T11:43:59.889Z,46.53
2022-12-18T11:46:41.023Z,48.97
2022-12-18T11:49:15.489Z,52.75
2022-12-18T11:52:02.138Z,48.00
2022-12-18T11:54:29.158Z,50.60
2022-12-18T11:57:05.042Z,49.65
2022-12-18T11:59:50.522Z,50.95
2022-12-18T12:02:44.080Z,46.35
2022-12-18T12:05:34.214Z,49.13
2022-12-18T12:08:12.823Z,50.35
2022-12-18T12:11:15.487Z,59.67
2022-12-18T12:14:04.813Z,56.15
2022-12-18T12:16:43.683Z,49.88
2022-12-18T12:19:54.299Z,44.95
2022-12-18T12:22:53.612Z,63.10
2022-12-18T12:25:37.907Z,54.58
2022-12-18T12:28:39.929Z,51.72
2022-12-18T12:31:16.816Z,50.83
2022-12-18T12:33:55.846Z,54.42
2022-12-18T12:36:38.930Z,42.78
2022-12-18T12:39:19.041Z,46.67
2022-12-18T12:42:06.056Z,46.92
2022-12-18T12:47:41.197Z,50.65
2022-12-18T12:50:15.549Z,43.17
2022-12-18T12:52:50.634Z,54.92
2022-12-18T12:55:27.985Z,43.85
2022-12-18T12:58:26.546Z,49.80
2022-12-18T13:01:19.957Z,51.50
2022-12-18T13:04:16.350Z,48.72
2022-12-18T13:07:11.245Z,52.00
2022-12-18T13:10:19.194Z,57.15
2022-12-18T13:16:09.231Z,46.63
2022-12-18T13:18:36.676Z,47.60
2022-12-18T13:21:21.230Z,49.08
2022-12-18T13:23:49.263Z,47.17
2022-12-18T13:26:24.698Z,50.08
2022-12-18T13:28:56.997Z,50.00
2022-12-18T13:31:42.605Z,47.15
2022-12-18T13:34:26.926Z,44.53
2022-12-18T13:36:56.763Z,48.25
2022-12-18T13:39:34.819Z,53.42
2022-12-18T13:42:08.794Z,57.45
2022-12-18T13:44:41.624Z,45.67
2022-12-18T13:47:38.463Z,52.03
2022-12-18T13:50:24.122Z,46.03
2022-12-18T13:52:53.591Z,51.15
2022-12-18T13:55:23.086Z,53.88
2022-12-18T13:57:50.110Z,59.72
2022-12-18T14:00:26.798Z,56.58
2022-12-18T14:02:53.986Z,51.88
2022-12-18T14:05:26.180Z,57.47
2022-12-18T14:08:01.745Z,46.80
2022-12-18T14:10:48.159Z,46.90
2022-12-18T14:13:29.279Z,52.63
2022-12-18T14:15:58.679Z,57.63
2022-12-18T14:19:02.690Z,53.00
2022-12-18T14:21:39.459Z,53.65
2022-12-18T14:24:10.261Z,51.92
2022-12-18T14:26:37.191Z,59.83
2022-12-18T14:29:36.515Z,56.13
2022-12-18T14:32:18.119Z,49.13
2022-12-18T14:34:49.650Z,48.28
2022-12-18T14:37:21.903Z,54.88
2022-12-18T14:39:55.792Z,56.00
2022-12-18T14:42:22.830Z,52.47
2022-12-18T14:45:12.473Z,50.67
2022-12-18T14:47:36.921Z,53.70
2022-12-18T14:50:04.273Z,45.05
2022-12-18T14:52:33.158Z,43.28
2022-12-18T14:55:00.205Z,53.85
2022-12-18T14:57:33.749Z,50.97
2022-12-18T15:00:15.545Z,54.45
2022-12-18T15:02:43.359Z,42.30
2022-12-18T15:05:13.781Z,43.53
2022-12-18T15:07:51.014Z,46.20
2022-12-18T15:10:19.421Z,40.97
2022-12-18T15:12:47.939Z,58.30
2022-12-18T15:15:33.865Z,52.90
2022-12-18T15:18:01.809Z,49.78
2022-12-18T15:20:32.436Z,49.50
2022-12-18T15:22:59.563Z,50.75
2022-12-18T15:25:37.772Z,43.00
2022-12-18T15:28:16.862Z,42.60
2022-12-18T15:31:00.359Z,41.97
2022-12-18T15:33:32.455Z,49.60
2022-12-18T15:36:01.691Z,55.92
2022-12-18T15:38:29.157Z,35.55
2022-12-18T15:40:56.198Z,43.22
2022-12-18T15:43:36.916Z,44.13
2022-12-18T15:46:12.084Z,38.60
2022-12-18T15:48:42.145Z,43.35
2022-12-18T15:51:22.503Z,39.17
2022-12-18T15:53:52.227Z,38.95
2022-12-18T15:56:37.768Z,53.08
2022-12-18T15:59:14.592Z,39.80
2022-12-18T16:01:43.504Z,36.97
2022-12-18T16:04:14.700Z,36.17
2022-12-18T16:07:12.773Z,52.22
2022-12-18T16:09:29.179Z,45.08
2022-12-18T16:11:56.215Z,41.15
2022-12-18T16:14:29.023Z,39.92
2022-12-18T16:17:02.085Z,32.33
2022-12-18T16:19:29.929Z,39.25
2022-12-18T16:21:58.851Z,36.67
2022-12-18T16:24:28.454Z,32.80
2022-12-18T16:26:57.176Z,35.38
2022-12-18T16:29:28.043Z,61.03
2022-12-18T16:31:59.415Z,39.47
2022-12-18T16:34:35.257Z,31.73
2022-12-18T16:37:06.275Z,32.83
2022-12-18T16:39:38.105Z,36.58
2022-12-18T16:42:17.881Z,31.30
2022-12-18T16:44:45.434Z,31.15
2022-12-18T16:47:14.986Z,27.25
2022-12-18T16:49:43.203Z,27.90
2022-12-18T16:52:10.486Z,29.80
2022-12-18T16:54:37.745Z,30.13
2022-12-18T16:57:08.248Z,29.20
2022-12-18T16:59:35.417Z,33.28
2022-12-18T17:02:03.844Z,28.45
2022-12-18T17:04:31.045Z,28.57
2022-12-18T17:06:58.293Z,30.88
2022-12-18T17:09:25.662Z,31.35
2022-12-18T17:11:53.515Z,37.28
2022-12-18T17:14:23.059Z,34.20
2022-12-18T17:17:07.196Z,36.13
2022-12-18T17:19:34.769Z,32.22
2022-12-18T17:22:01.925Z,39.40
2022-12-18T17:24:34.574Z,33.15
2022-12-18T17:27:02.907Z,37.35
2022-12-18T17:29:30.111Z,32.75
2022-12-18T17:31:57.270Z,33.80
2022-12-18T17:36:53.194Z,36.20
2022-12-18T17:39:21.356Z,31.92
2022-12-18T17:41:49.585Z,38.58
2022-12-18T17:44:17.170Z,37.58
2022-12-18T17:46:46.108Z,38.30
2022-12-18T17:49:14.660Z,27.92
2022-12-18T17:51:43.082Z,30.38
2022-12-18T17:56:39.285Z,30.73
2022-12-18T17:59:07.216Z,29.77
2022-12-18T18:01:38.509Z,29.10
2022-12-18T18:04:08.630Z,33.63
2022-12-18T18:06:38.097Z,26.73
2022-12-18T18:09:15.657Z,30.73
2022-12-18T18:12:20.386Z,37.63
2022-12-18T18:14:47.648Z,27.33
2022-12-18T18:17:14.763Z,29.17
2022-12-18T18:19:42.215Z,26.42
2022-12-18T18:22:11.151Z,21.60
2022-12-18T18:24:38.173Z,22.35
2022-12-18T18:27:05.321Z,28.75
2022-12-18T18:29:32.384Z,24.85
2022-12-18T18:31:59.908Z,28.70
2022-12-18T18:34:29.498Z,25.83
2022-12-18T18:36:56.554Z,26.00
2022-12-18T18:39:23.568Z,21.65
2022-12-18T18:41:51.329Z,21.70
2022-12-18T18:44:24.756Z,21.47
2022-12-18T18:46:55.151Z,28.52
2022-12-18T18:49:24.400Z,22.80
2022-12-18T18:51:51.507Z,20.20
2022-12-18T18:54:18.470Z,22.55
2022-12-18T18:57:19.017Z,24.95
2022-12-18T18:59:32.708Z,19.52
2022-12-18T19:02:04.237Z,21.85
2022-12-18T19:04:33.576Z,19.05
2022-12-18T19:09:28.605Z,18.65
2022-12-18T19:12:14.816Z,28.65
2022-12-18T19:14:42.335Z,25.15
2022-12-18T19:17:10.997Z,17.17
2022-12-18T19:19:37.957Z,20.73
2022-12-18T19:22:05.348Z,23.88
2022-12-18T19:24:32.279Z,19.15
2022-12-18T19:26:59.240Z,57.30
2022-12-18T19:29:26.423Z,51.25
2022-12-18T19:31:53.550Z,21.13
2022-12-18T19:34:20.642Z,19.10
2022-12-18T19:36:47.698Z,21.70
2022-12-18T19:39:17.435Z,21.05
2022-12-18T19:41:44.906Z,21.90
2022-12-18T19:44:17.293Z,17.97
2022-12-18T19:46:46.315Z,23.55
2022-12-18T19:49:17.678Z,26.42
2022-12-18T19:51:46.018Z,21.38
2022-12-18T19:54:17.006Z,23.67
2022-12-18T19:56:45.119Z,30.10
2022-12-18T19:59:12.521Z,20.27
2022-12-18T20:01:39.951Z,16.83
2022-12-18T20:04:07.488Z,22.02
2022-12-18T20:06:56.152Z,20.10
2022-12-18T20:09:23.543Z,19.55
2022-12-18T20:11:50.965Z,23.10
2022-12-18T20:14:22.126Z,18.10
2022-12-18T20:16:52.416Z,28.52
2022-12-18T20:19:20.384Z,23.10
2022-12-18T20:21:48.025Z,21.30
2022-12-18T20:24:15.009Z,21.40
2022-12-18T20:26:42.115Z,19.17
2022-12-18T20:29:09.100Z,20.90
2022-12-18T20:31:37.081Z,21.00
2022-12-18T20:34:06.014Z,24.27
2022-12-18T20:36:34.262Z,19.52
2022-12-18T20:39:06.575Z,21.10
2022-12-18T20:41:38.215Z,19.75
2022-12-18T20:44:21.991Z,24.48
2022-12-18T20:46:58.029Z,20.85
2022-12-18T20:49:27.018Z,21.10
2022-12-18T20:51:56.226Z,20.25
2022-12-18T20:54:25.882Z,25.50
2022-12-18T20:56:53.229Z,22.75
2022-12-18T20:59:20.328Z,24.83
2022-12-18T21:01:48.233Z,20.15
2022-12-18T21:04:19.855Z,18.70
2022-12-18T21:06:52.348Z,22.10
2022-12-18T21:09:22.628Z,25.70
2022-12-18T21:12:08.793Z,25.27
2022-12-18T21:14:38.128Z,20.83
2022-12-18T21:17:05.174Z,21.52
2022-12-18T21:19:32.416Z,22.65
2022-12-18T21:22:00.793Z,19.25
2022-12-18T21:24:28.187Z,21.15
2022-12-18T21:27:00.230Z,18.17
2022-12-18T21:29:27.435Z,19.08
2022-12-18T21:31:54.881Z,20.98
2022-12-18T21:34:27.857Z,21.58
2022-12-18T21:36:57.382Z,17.85
2022-12-18T21:39:25.223Z,19.10
2022-12-18T21:42:11.062Z,19.20
2022-12-18T21:44:39.592Z,17.63
2022-12-18T21:47:21.505Z,15.95
2022-12-18T21:49:49.606Z,17.00
2022-12-18T21:52:17.205Z,18.35
2022-12-18T21:54:44.181Z,17.83
2022-12-18T21:57:13.514Z,17.25
2022-12-18T21:59:43.521Z,19.20
2022-12-18T22:02:16.355Z,17.63
2022-12-18T22:04:45.145Z,18.23
2022-12-18T22:09:39.596Z,18.95
2022-12-18T22:12:08.975Z,19.75
2022-12-18T22:14:36.314Z,19.55
2022-12-18T22:17:03.546Z,18.85
2022-12-18T22:19:30.927Z,17.58
2022-12-18T22:21:58.119Z,18.95
2022-12-18T22:24:26.873Z,16.55
2022-12-18T22:27:02.026Z,17.60
2022-12-18T22:29:47.914Z,18.13
2022-12-18T22:32:30.932Z,17.40
2022-12-18T22:35:06.872Z,20.85
2022-12-18T22:37:35.293Z,19.33
2022-12-18T22:40:05.954Z,19.38
2022-12-18T22:42:34.425Z,17.67
2022-12-18T22:45:01.717Z,18.15
2022-12-18T22:47:30.459Z,16.27
2022-12-18T22:49:58.209Z,21.85
2022-12-18T22:52:25.541Z,14.23
2022-12-18T22:54:54.053Z,13.90
2022-12-18T22:59:49.928Z,13.38
2022-12-18T23:02:18.127Z,12.13
2022-12-18T23:04:45.511Z,10.48
2022-12-18T23:07:12.724Z,12.15
2022-12-18T23:09:39.977Z,10.25
2022-12-18T23:12:07.433Z,12.02
2022-12-18T23:14:34.846Z,12.02
2022-12-18T23:17:01.851Z,10.15
2022-12-18T23:19:29.150Z,9.98
2022-12-18T23:21:58.763Z,20.40
2022-12-18T23:24:26.454Z,21.90
2022-12-18T23:26:53.796Z,11.15
2022-12-18T23:29:21.325Z,10.38
2022-12-18T23:31:48.409Z,12.18
2022-12-18T23:34:15.527Z,10.88
2022-12-18T23:36:46.272Z,9.10
2022-12-18T23:39:15.440Z,52.88
2022-12-18T23:41:57.438Z,7.53
2022-12-18T23:44:24.505Z,7.82
2022-12-18T23:46:51.599Z,18.35
2022-12-18T23:49:18.639Z,7.28
2022-12-18T23:51:45.665Z,6.70
2022-12-18T23:54:12.661Z,6.00
2022-12-18T23:56:39.780Z,10.02
2022-12-18T23:59:06.782Z,5.90
